createdAt,value
2019-04-03T00:01:41.581Z,24.03
2019-04-03T00:04:10.197Z,24.13
2019-04-03T00:06:38.813Z,22.57
2019-04-03T00:09:08.419Z,24.97
2019-04-03T00:11:39.751Z,24.20
2019-04-03T00:14:07.982Z,24.47
2019-04-03T00:16:36.634Z,25.17
2019-04-03T00:19:05.237Z,23.83
2019-04-03T00:21:33.704Z,24.93
2019-04-03T00:24:02.325Z,24.53
2019-04-03T00:26:31.149Z,23.47
2019-04-03T00:28:59.730Z,24.63
2019-04-03T00:31:28.390Z,24.47
2019-04-03T00:33:57.049Z,24.23
2019-04-03T00:36:25.672Z,23.80
2019-04-03T00:38:54.760Z,26.63
2019-04-03T00:41:24.728Z,26.53
2019-04-03T00:43:54.456Z,25.90
2019-04-03T00:46:24.475Z,25.93
2019-04-03T00:48:55.562Z,24.33
2019-04-03T00:51:24.035Z,24.77
2019-04-03T00:53:52.798Z,23.73
2019-04-03T00:56:21.313Z,25.20
2019-04-03T00:58:50.018Z,23.53
2019-04-03T01:01:18.651Z,22.67
2019-04-03T01:03:47.219Z,24.20
2019-04-03T01:06:15.916Z,22.70
2019-04-03T01:08:44.491Z,23.77
2019-04-03T01:11:13.011Z,21.23
2019-04-03T01:13:41.685Z,21.70
2019-04-03T01:16:10.335Z,19.63
2019-04-03T01:18:39.020Z,19.30
2019-04-03T01:21:07.706Z,20.90
2019-04-03T01:23:37.797Z,17.70
2019-04-03T01:26:09.255Z,19.00
2019-04-03T01:28:36.947Z,18.23
2019-04-03T01:31:05.583Z,16.53
2019-04-03T01:33:34.177Z,17.33
2019-04-03T01:36:02.802Z,16.27
2019-04-03T01:38:31.355Z,17.90
2019-04-03T01:40:59.854Z,17.00
2019-04-03T01:43:28.361Z,17.10
2019-04-03T01:45:57.315Z,16.43
2019-04-03T01:48:26.880Z,15.97
2019-04-03T01:50:57.775Z,17.77
2019-04-03T01:53:26.737Z,15.80
2019-04-03T01:55:55.383Z,18.03
2019-04-03T01:58:24.231Z,16.80
2019-04-03T02:00:52.840Z,16.30
2019-04-03T02:03:21.438Z,16.12
2019-04-03T02:05:49.914Z,15.77
2019-04-03T02:08:18.450Z,15.67
2019-04-03T02:10:48.912Z,17.27
2019-04-03T02:13:17.399Z,17.03
2019-04-03T02:15:46.133Z,15.20
2019-04-03T02:18:14.759Z,15.43
2019-04-03T02:20:43.373Z,14.33
2019-04-03T02:23:11.911Z,15.43
2019-04-03T02:25:40.494Z,14.80
2019-04-03T02:28:08.987Z,15.67
2019-04-03T02:30:37.526Z,15.47
2019-04-03T02:33:06.167Z,15.40
2019-04-03T02:35:34.800Z,14.80
2019-04-03T02:38:03.600Z,14.97
2019-04-03T02:40:33.109Z,15.43
2019-04-03T02:43:01.734Z,15.77
2019-04-03T02:45:30.548Z,15.27
2019-04-03T02:47:59.195Z,14.70
2019-04-03T02:50:28.407Z,15.03
2019-04-03T02:52:58.684Z,15.37
2019-04-03T02:55:27.317Z,14.77
2019-04-03T02:57:55.793Z,15.80
2019-04-03T03:00:24.393Z,15.30
2019-04-03T03:02:52.924Z,14.87
2019-04-03T03:05:21.489Z,14.97
2019-04-03T03:07:51.979Z,14.70
2019-04-03T03:10:20.724Z,14.60
2019-04-03T03:12:49.797Z,13.63
2019-04-03T03:15:20.201Z,14.10
2019-04-03T03:17:52.496Z,13.10
2019-04-03T03:20:23.847Z,13.20
2019-04-03T03:22:52.547Z,12.97
2019-04-03T03:25:21.850Z,13.27
2019-04-03T03:27:51.186Z,14.20
2019-04-03T03:30:35.686Z,13.67
2019-04-03T03:32:50.617Z,13.17
2019-04-03T03:35:28.490Z,14.20
2019-04-03T03:37:51.035Z,14.23
2019-04-03T03:40:20.296Z,13.93
2019-04-03T03:42:50.676Z,12.97
2019-04-03T03:45:21.664Z,13.67
2019-04-03T03:47:51.299Z,13.90
2019-04-03T03:50:24.513Z,13.77
2019-04-03T03:52:54.865Z,13.30
2019-04-03T03:55:25.523Z,13.03
2019-04-03T03:57:55.384Z,13.13
2019-04-03T04:00:24.784Z,12.00
2019-04-03T04:02:54.149Z,12.70
2019-04-03T04:05:23.094Z,12.97
2019-04-03T04:07:52.190Z,12.90
2019-04-03T04:10:24.059Z,12.93
2019-04-03T04:12:51.674Z,12.23
2019-04-03T04:15:20.312Z,12.67
2019-04-03T04:17:51.001Z,14.53
2019-04-03T04:20:19.224Z,14.43
2019-04-03T04:22:50.472Z,15.17
2019-04-03T04:25:19.205Z,16.17
2019-04-03T04:27:48.884Z,17.80
2019-04-03T04:30:19.034Z,16.73
2019-04-03T04:32:47.658Z,17.93
2019-04-03T04:35:16.358Z,18.25
2019-04-03T04:37:44.940Z,18.10
2019-04-03T04:40:13.563Z,18.45
2019-04-03T04:42:42.171Z,18.20
2019-04-03T04:45:11.833Z,19.10
2019-04-03T04:47:41.335Z,18.47
2019-04-03T04:50:09.948Z,18.80
2019-04-03T04:52:38.420Z,18.10
2019-04-03T04:55:07.417Z,18.90
2019-04-03T04:57:35.890Z,21.03
2019-04-03T05:00:07.235Z,20.23
2019-04-03T05:02:35.867Z,19.57
2019-04-03T05:05:08.687Z,19.07
2019-04-03T05:07:36.848Z,18.20
2019-04-03T05:10:06.715Z,21.43
2019-04-03T05:12:35.493Z,21.83
2019-04-03T05:15:04.548Z,18.30
2019-04-03T05:17:33.210Z,16.90
2019-04-03T05:20:01.938Z,17.20
2019-04-03T05:22:30.561Z,18.43
2019-04-03T05:24:59.963Z,16.23
2019-04-03T05:27:29.074Z,16.00
2019-04-03T05:29:57.709Z,17.87
2019-04-03T05:32:26.344Z,15.30
2019-04-03T05:34:54.877Z,15.13
2019-04-03T05:37:24.557Z,15.35
2019-04-03T05:39:55.632Z,15.90
2019-04-03T05:42:23.520Z,16.32
2019-04-03T05:44:52.175Z,15.45
2019-04-03T05:47:20.767Z,16.57
2019-04-03T05:49:51.266Z,16.48
2019-04-03T05:52:19.811Z,15.30
2019-04-03T05:54:48.484Z,14.70
2019-04-03T05:57:17.613Z,14.47
2019-04-03T05:59:59.116Z,15.93
2019-04-03T06:02:20.165Z,13.65
2019-04-03T06:04:46.969Z,14.23
2019-04-03T06:07:17.478Z,13.62
2019-04-03T06:09:45.854Z,13.68
2019-04-03T06:12:15.212Z,14.85
2019-04-03T06:14:44.623Z,14.65
2019-04-03T06:17:13.322Z,14.40
2019-04-03T06:19:41.960Z,13.88
2019-04-03T06:22:10.799Z,14.23
2019-04-03T06:24:39.499Z,13.90
2019-04-03T06:27:10.088Z,14.45
2019-04-03T06:29:38.385Z,13.93
2019-04-03T06:32:07.126Z,14.10
2019-04-03T06:34:38.064Z,15.55
2019-04-03T06:37:06.882Z,14.50
2019-04-03T06:39:35.651Z,14.00
2019-04-03T06:42:04.595Z,13.53
2019-04-03T06:44:33.133Z,13.03
2019-04-03T06:47:02.045Z,14.05
2019-04-03T06:49:30.664Z,14.87
2019-04-03T06:51:59.134Z,15.72
2019-04-03T06:54:31.144Z,15.68
2019-04-03T06:56:59.441Z,14.20
2019-04-03T06:59:28.050Z,14.78
2019-04-03T07:01:56.587Z,15.60
2019-04-03T07:04:25.136Z,14.28
2019-04-03T07:06:55.871Z,13.58
2019-04-03T07:09:34.134Z,13.13
2019-04-03T07:11:57.614Z,12.60
2019-04-03T07:14:27.172Z,13.98
2019-04-03T07:16:56.030Z,13.88
2019-04-03T07:19:24.574Z,14.30
2019-04-03T07:21:55.187Z,13.35
2019-04-03T07:24:23.560Z,12.28
2019-04-03T07:26:52.105Z,15.45
2019-04-03T07:29:20.742Z,14.93
2019-04-03T07:31:49.360Z,14.70
2019-04-03T07:34:17.901Z,13.53
2019-04-03T07:36:46.801Z,14.38
2019-04-03T07:39:15.327Z,13.68
2019-04-03T07:41:44.144Z,13.20
2019-04-03T07:44:12.719Z,14.53
2019-04-03T07:46:41.374Z,15.05
2019-04-03T07:49:10.490Z,14.15
2019-04-03T07:51:39.329Z,14.60
2019-04-03T07:54:07.941Z,14.38
2019-04-03T07:56:36.902Z,13.70
2019-04-03T07:59:05.512Z,13.72
2019-04-03T08:01:34.084Z,17.10
2019-04-03T08:04:02.694Z,52.13
2019-04-03T08:06:33.012Z,47.30
2019-04-03T08:09:08.273Z,16.97
2019-04-03T08:11:32.827Z,15.88
2019-04-03T08:14:02.114Z,21.68
2019-04-03T08:16:30.589Z,22.62
2019-04-03T08:18:59.241Z,20.27
2019-04-03T08:21:29.988Z,31.07
2019-04-03T08:23:58.269Z,17.32
2019-04-03T08:26:27.458Z,18.10
2019-04-03T08:28:56.489Z,27.15
2019-04-03T08:31:24.988Z,16.57
2019-04-03T08:33:53.590Z,15.25
2019-04-03T08:36:24.957Z,14.80
2019-04-03T08:38:52.466Z,15.45
2019-04-03T08:41:22.134Z,14.85
2019-04-03T08:43:51.643Z,14.80
2019-04-03T08:46:20.578Z,14.78
2019-04-03T08:48:49.303Z,14.55
2019-04-03T08:51:18.015Z,16.55
2019-04-03T08:53:46.666Z,16.80
2019-04-03T08:56:17.120Z,15.45
2019-04-03T08:58:45.989Z,15.32
2019-04-03T09:01:14.982Z,15.45
2019-04-03T09:03:45.336Z,14.47
2019-04-03T09:06:14.098Z,16.32
2019-04-03T09:08:42.635Z,15.93
2019-04-03T09:11:14.079Z,15.00
2019-04-03T09:13:42.574Z,14.38
2019-04-03T09:16:11.109Z,13.80
2019-04-03T09:18:39.774Z,14.10
2019-04-03T09:21:08.450Z,14.60
2019-04-03T09:23:37.380Z,15.65
2019-04-03T09:26:06.003Z,16.17
2019-04-03T09:28:34.677Z,14.87
2019-04-03T09:31:03.652Z,15.75
2019-04-03T09:33:32.192Z,15.30
2019-04-03T09:36:03.702Z,14.70
2019-04-03T09:38:30.988Z,15.10
2019-04-03T09:40:59.658Z,14.58
2019-04-03T09:43:28.242Z,14.35
2019-04-03T09:45:59.317Z,16.27
2019-04-03T09:48:27.064Z,15.18
2019-04-03T09:50:55.678Z,14.58
2019-04-03T09:53:26.381Z,15.95
2019-04-03T09:55:54.801Z,15.43
2019-04-03T09:58:23.339Z,15.28
2019-04-03T10:00:51.952Z,14.38
2019-04-03T10:03:20.847Z,14.35
2019-04-03T10:05:50.874Z,14.73
2019-04-03T10:08:19.460Z,15.70
2019-04-03T10:10:48.327Z,17.00
2019-04-03T10:13:17.133Z,16.02
2019-04-03T10:15:45.816Z,15.00
2019-04-03T10:18:14.308Z,15.10
2019-04-03T10:20:44.329Z,15.30
2019-04-03T10:23:13.472Z,14.55
2019-04-03T10:25:42.143Z,17.92
2019-04-03T10:28:13.891Z,16.15
2019-04-03T10:30:41.128Z,14.75
2019-04-03T10:33:10.580Z,16.50
2019-04-03T10:35:39.861Z,16.87
2019-04-03T10:38:08.578Z,15.00
2019-04-03T10:40:37.127Z,13.90
2019-04-03T10:43:06.387Z,15.75
2019-04-03T10:45:35.888Z,15.30
2019-04-03T10:48:04.619Z,15.23
2019-04-03T10:50:33.163Z,15.48
2019-04-03T10:53:01.804Z,15.18
2019-04-03T10:55:30.481Z,15.78
2019-04-03T10:58:01.573Z,16.23
2019-04-03T11:00:29.903Z,16.95
2019-04-03T11:02:58.810Z,16.15
2019-04-03T11:05:27.432Z,16.65
2019-04-03T11:07:57.639Z,17.67
2019-04-03T11:10:26.305Z,17.57
2019-04-03T11:12:54.903Z,17.80
2019-04-03T11:15:23.576Z,15.25
2019-04-03T11:17:52.172Z,15.90
2019-04-03T11:20:21.089Z,16.35
2019-04-03T11:22:49.698Z,15.85
2019-04-03T11:25:18.378Z,15.90
2019-04-03T11:27:47.436Z,17.37
2019-04-03T11:30:23.388Z,16.42
2019-04-03T11:32:47.820Z,15.05
2019-04-03T11:35:16.908Z,16.37
2019-04-03T11:37:45.619Z,17.12
2019-04-03T11:40:17.337Z,17.15
2019-04-03T11:42:45.780Z,16.02
2019-04-03T11:45:16.122Z,16.60
2019-04-03T11:47:46.198Z,17.17
2019-04-03T11:50:17.270Z,17.75
2019-04-03T11:52:45.880Z,16.80
2019-04-03T11:55:14.621Z,15.30
2019-04-03T11:57:43.151Z,18.15
2019-04-03T12:00:15.576Z,16.80
2019-04-03T12:02:44.804Z,16.12
2019-04-03T12:05:19.874Z,18.07
2019-04-03T12:07:46.034Z,17.32
2019-04-03T12:10:14.687Z,17.05
2019-04-03T12:12:43.179Z,15.83
2019-04-03T12:15:15.685Z,15.72
2019-04-03T12:17:43.170Z,19.10
2019-04-03T12:20:15.317Z,16.95
2019-04-03T12:22:43.307Z,16.75
2019-04-03T12:25:12.424Z,17.42
2019-04-03T12:27:44.994Z,16.25
2019-04-03T12:30:11.526Z,17.87
2019-04-03T12:32:45.330Z,18.00
2019-04-03T12:35:11.311Z,17.95
2019-04-03T12:37:40.321Z,17.90
2019-04-03T12:40:09.480Z,17.80
2019-04-03T12:42:38.087Z,18.07
2019-04-03T12:45:08.517Z,18.73
2019-04-03T12:47:37.090Z,18.40
2019-04-03T12:50:07.662Z,19.55
2019-04-03T12:52:36.696Z,20.60
2019-04-03T12:55:08.633Z,18.45
2019-04-03T12:57:39.246Z,20.55
2019-04-03T13:00:12.925Z,18.37
2019-04-03T13:02:42.486Z,18.23
2019-04-03T13:05:11.233Z,18.70
2019-04-03T13:07:39.854Z,19.12
2019-04-03T13:10:10.304Z,19.23
2019-04-03T13:12:39.282Z,19.17
2019-04-03T13:15:10.553Z,19.27
2019-04-03T13:17:39.229Z,15.78
2019-04-03T13:20:09.208Z,16.52
2019-04-03T13:22:37.965Z,19.15
2019-04-03T13:25:10.700Z,17.02
2019-04-03T13:27:39.684Z,22.37
2019-04-03T13:30:11.914Z,17.55
2019-04-03T13:32:40.595Z,16.35
2019-04-03T13:35:09.659Z,16.50
2019-04-03T13:37:38.283Z,15.65
2019-04-03T13:40:09.176Z,17.67
2019-04-03T13:42:37.854Z,17.92
2019-04-03T13:45:09.457Z,17.50
2019-04-03T13:47:41.082Z,16.40
2019-04-03T13:50:10.690Z,16.95
2019-04-03T13:52:43.217Z,16.20
2019-04-03T13:55:10.195Z,17.12
2019-04-03T13:57:38.834Z,16.75
2019-04-03T14:00:18.730Z,16.55
2019-04-03T14:02:39.992Z,17.17
2019-04-03T14:05:09.767Z,16.37
2019-04-03T14:07:41.578Z,16.20
2019-04-03T14:10:11.083Z,16.90
2019-04-03T14:12:43.563Z,17.27
2019-04-03T14:15:10.183Z,15.48
2019-04-03T14:17:39.829Z,15.45
2019-04-03T14:20:10.031Z,16.20
2019-04-03T14:22:38.613Z,15.50
2019-04-03T14:25:19.349Z,17.52
2019-04-03T14:27:41.810Z,16.75
2019-04-03T14:30:11.983Z,16.97
2019-04-03T14:32:42.156Z,16.27
2019-04-03T14:35:41.263Z,18.45
2019-04-03T14:37:42.218Z,17.98
2019-04-03T14:40:13.458Z,18.75
2019-04-03T14:42:43.171Z,16.67
2019-04-03T14:45:14.426Z,16.93
2019-04-03T14:47:43.207Z,17.70
2019-04-03T14:50:12.369Z,17.70
2019-04-03T14:52:41.099Z,18.27
2019-04-03T14:55:18.040Z,19.52
2019-04-03T14:57:41.383Z,18.32
2019-04-03T15:00:24.798Z,18.37
2019-04-03T15:02:43.307Z,17.62
2019-04-03T15:05:12.031Z,19.10
2019-04-03T15:07:40.663Z,17.40
2019-04-03T15:10:10.708Z,17.73
2019-04-03T15:12:40.667Z,16.80
2019-04-03T15:15:11.012Z,27.80
2019-04-03T15:17:39.983Z,24.72
2019-04-03T15:20:11.488Z,21.42
2019-04-03T15:22:40.310Z,18.55
2019-04-03T15:25:09.634Z,18.95
2019-04-03T15:27:38.318Z,18.00
2019-04-03T15:30:11.829Z,18.15
2019-04-03T15:32:40.153Z,20.40
2019-04-03T15:35:10.712Z,17.57
2019-04-03T15:37:41.502Z,17.80
2019-04-03T15:40:09.627Z,16.95
2019-04-03T15:42:40.250Z,18.65
2019-04-03T15:45:10.036Z,17.52
2019-04-03T15:47:44.130Z,17.62
2019-04-03T15:50:09.754Z,17.92
2019-04-03T15:52:38.726Z,18.90
2019-04-03T15:55:08.440Z,22.95
2019-04-03T15:57:39.595Z,30.80
2019-04-03T16:00:13.282Z,22.90
2019-04-03T16:02:44.521Z,20.40
2019-04-03T16:05:13.455Z,21.68
2019-04-03T16:07:42.692Z,21.77
2019-04-03T16:10:12.282Z,20.65
2019-04-03T16:12:42.755Z,20.40
2019-04-03T16:15:11.721Z,19.62
2019-04-03T16:17:40.623Z,23.95
2019-04-03T16:20:10.444Z,25.17
2019-04-03T16:22:39.235Z,32.83
2019-04-03T16:25:08.331Z,32.45
2019-04-03T16:27:37.418Z,31.33
2019-04-03T16:30:14.217Z,33.65
2019-04-03T16:32:41.563Z,30.50
2019-04-03T16:35:12.578Z,31.65
2019-04-03T16:37:41.525Z,36.98
2019-04-03T16:40:11.280Z,34.92
2019-04-03T16:42:40.093Z,36.93
2019-04-03T16:45:10.600Z,35.65
2019-04-03T16:47:40.166Z,37.75
2019-04-03T16:50:11.008Z,36.93
2019-04-03T16:52:40.060Z,25.80
2019-04-03T16:55:09.181Z,25.82
2019-04-03T16:57:38.283Z,35.23
2019-04-03T17:00:10.161Z,41.65
2019-04-03T17:02:39.055Z,33.98
2019-04-03T17:05:11.304Z,33.63
2019-04-03T17:07:40.421Z,26.90
2019-04-03T17:10:10.751Z,29.77
2019-04-03T17:12:39.908Z,27.25
2019-04-03T17:15:11.951Z,25.15
2019-04-03T17:17:40.369Z,27.87
2019-04-03T17:20:09.712Z,33.28
2019-04-03T17:22:40.221Z,41.40
2019-04-03T17:25:09.886Z,39.67
2019-04-03T17:27:38.578Z,37.93
2019-04-03T17:30:08.573Z,49.38
2019-04-03T17:32:38.931Z,61.13
2019-04-03T17:35:07.899Z,63.38
2019-04-03T17:37:37.270Z,61.50
2019-04-03T17:40:10.864Z,55.23
2019-04-03T17:42:40.191Z,51.63
2019-04-03T17:45:10.403Z,45.12
2019-04-03T17:47:39.029Z,47.00
2019-04-03T17:50:08.383Z,47.38
2019-04-03T17:52:37.305Z,45.50
2019-04-03T17:55:11.112Z,42.70
2019-04-03T17:57:39.757Z,47.83
2019-04-03T18:00:20.478Z,52.05
2019-04-03T18:02:47.767Z,53.45
2019-04-03T18:05:16.844Z,55.25
2019-04-03T18:07:45.460Z,52.60
2019-04-03T18:10:14.385Z,49.93
2019-04-03T18:12:45.463Z,57.70
2019-04-03T18:15:14.182Z,71.40
2019-04-03T18:17:43.285Z,74.22
2019-04-03T18:20:13.554Z,76.80
2019-04-03T18:22:42.230Z,81.67
2019-04-03T18:25:11.739Z,78.33
2019-04-03T18:27:40.354Z,70.57
2019-04-03T18:30:11.886Z,61.73
2019-04-03T18:32:40.395Z,57.53
2019-04-03T18:35:09.778Z,57.08
2019-04-03T18:37:40.904Z,56.37
2019-04-03T18:40:14.149Z,57.25
2019-04-03T18:42:41.291Z,53.50
2019-04-03T18:45:10.130Z,51.98
2019-04-03T18:47:41.485Z,49.25
2019-04-03T18:50:10.095Z,47.30
2019-04-03T18:52:39.402Z,44.20
2019-04-03T18:55:08.661Z,46.28
2019-04-03T18:57:37.283Z,45.05
2019-04-03T19:00:09.855Z,45.33
2019-04-03T19:02:38.807Z,45.03
2019-04-03T19:05:13.514Z,61.75
2019-04-03T19:07:39.684Z,49.48
2019-04-03T19:10:09.434Z,75.57
2019-04-03T19:12:43.108Z,65.47
2019-04-03T19:15:09.481Z,70.30
2019-04-03T19:17:38.138Z,60.43
2019-04-03T19:20:10.827Z,60.05
2019-04-03T19:22:38.006Z,56.65
2019-04-03T19:25:08.409Z,49.65
2019-04-03T19:27:37.048Z,52.15
2019-04-03T19:30:09.474Z,44.58
2019-04-03T19:32:38.122Z,42.05
2019-04-03T19:35:09.534Z,38.67
2019-04-03T19:37:39.133Z,39.42
2019-04-03T19:40:09.930Z,38.67
2019-04-03T19:42:38.399Z,52.58
2019-04-03T19:45:08.324Z,48.60
2019-04-03T19:47:36.925Z,53.05
2019-04-03T19:50:08.165Z,54.83
2019-04-03T19:52:37.434Z,58.15
2019-04-03T19:55:07.988Z,58.15
2019-04-03T19:57:36.623Z,55.00
2019-04-03T20:00:08.002Z,45.40
2019-04-03T20:02:38.295Z,44.58
2019-04-03T20:05:08.241Z,44.15
2019-04-03T20:07:36.948Z,47.20
2019-04-03T20:10:08.599Z,49.05
2019-04-03T20:12:37.772Z,51.28
2019-04-03T20:15:09.505Z,52.23
2019-04-03T20:17:38.168Z,54.00
2019-04-03T20:20:10.192Z,56.85
2019-04-03T20:22:42.255Z,54.08
2019-04-03T20:25:09.242Z,51.80
2019-04-03T20:27:38.075Z,45.00
2019-04-03T20:30:08.283Z,43.80
2019-04-03T20:32:39.981Z,42.30
2019-04-03T20:35:07.794Z,36.48
2019-04-03T20:37:36.478Z,31.68
2019-04-03T20:40:06.962Z,35.75
2019-04-03T20:42:35.563Z,48.35
2019-04-03T20:45:06.019Z,51.10
2019-04-03T20:47:34.645Z,44.88
2019-04-03T20:50:06.602Z,42.90
2019-04-03T20:52:33.889Z,40.55
2019-04-03T20:55:02.622Z,38.90
2019-04-03T20:57:33.354Z,45.85
2019-04-03T21:00:03.208Z,37.53
2019-04-03T21:02:31.823Z,43.63
2019-04-03T21:05:00.368Z,48.08
2019-04-03T21:07:28.907Z,42.62
2019-04-03T21:10:00.630Z,41.20
2019-04-03T21:12:27.871Z,39.88
2019-04-03T21:15:07.674Z,38.58
2019-04-03T21:17:26.675Z,39.65
2019-04-03T21:19:55.263Z,39.58
2019-04-03T21:22:29.546Z,39.00
2019-04-03T21:24:56.905Z,37.83
2019-04-03T21:27:25.450Z,42.48
2019-04-03T21:29:54.084Z,38.83
2019-04-03T21:32:22.742Z,36.08
2019-04-03T21:34:52.969Z,36.20
2019-04-03T21:37:21.510Z,35.33
2019-04-03T21:39:50.112Z,38.33
2019-04-03T21:42:18.648Z,36.13
2019-04-03T21:44:47.456Z,33.05
2019-04-03T21:47:16.066Z,34.85
2019-04-03T21:49:47.405Z,31.10
2019-04-03T21:52:15.012Z,31.37
2019-04-03T21:54:43.541Z,29.25
2019-04-03T21:57:12.262Z,32.60
2019-04-03T21:59:41.713Z,30.50
2019-04-03T22:02:10.795Z,29.40
2019-04-03T22:04:39.405Z,29.32
2019-04-03T22:07:08.012Z,27.82
2019-04-03T22:09:36.554Z,27.82
2019-04-03T22:12:05.898Z,27.40
2019-04-03T22:14:35.342Z,26.20
2019-04-03T22:17:03.957Z,24.37
2019-04-03T22:19:32.565Z,24.98
2019-04-03T22:22:02.945Z,27.20
2019-04-03T22:24:31.606Z,26.35
2019-04-03T22:27:00.245Z,26.80
2019-04-03T22:29:28.695Z,27.70
2019-04-03T22:31:57.371Z,28.05
2019-04-03T22:34:25.942Z,27.27
2019-04-03T22:36:54.481Z,28.53
2019-04-03T22:39:23.082Z,26.27
2019-04-03T22:41:51.618Z,24.47
2019-04-03T22:44:20.243Z,22.85
2019-04-03T22:46:48.841Z,27.45
2019-04-03T22:49:17.442Z,27.27
2019-04-03T22:51:46.045Z,27.13
2019-04-03T22:54:14.535Z,25.92
2019-04-03T22:56:43.134Z,24.60
2019-04-03T22:59:11.715Z,24.77
2019-04-03T23:01:40.475Z,24.77
2019-04-03T23:04:09.012Z,22.90
2019-04-03T23:06:37.556Z,22.43
2019-04-03T23:09:08.002Z,21.00
2019-04-03T23:11:36.468Z,21.60
2019-04-03T23:14:06.969Z,20.65
2019-04-03T23:16:36.094Z,19.55
2019-04-03T23:19:04.800Z,19.95
2019-04-03T23:21:33.407Z,19.52
2019-04-03T23:24:02.092Z,18.90
2019-04-03T23:26:32.231Z,20.77
2019-04-03T23:29:00.946Z,20.30
2019-04-03T23:31:29.498Z,19.02
2019-04-03T23:33:57.961Z,20.00
2019-04-03T23:36:26.436Z,20.35
2019-04-03T23:38:56.534Z,20.25
2019-04-03T23:41:25.233Z,19.82
2019-04-03T23:43:53.697Z,19.95
2019-04-03T23:46:22.197Z,20.43
2019-04-03T23:48:50.759Z,19.70
2019-04-03T23:51:23.520Z,19.45
2019-04-03T23:53:49.474Z,20.00
2019-04-03T23:56:17.943Z,20.27
2019-04-03T23:58:46.488Z,19.45
